Richmond, California
Current Conditions -  °F | °C
As of 10:53 AM on Friday 28 Nov 2014 (Local Time) from KOAK Reporting Station
Haze Haze  
Wind Chill: 56°   Ceiling: Unl
Heat Index: 56°   Visibility: 5mi
Dew Point: 51°   Wind: 7mph
Humidity: 84%   Direction: 160°SSE
Pressure: 30.02"   Gusts: NA
Location:  37.94°N, 122.34°W
Report Text: KOAK 281853Z 16006KT 5SM HZ FEW150 13/11 A3002 RMK AO2 SLP166 T01330106
Loading
Personal Weather Stations






























Interactive Weather Map New forecast layout! Learn more

10-Day Weather Forecast

Advertisements
Track Severe Weather on mobile